createdAt,value
2022-09-11T00:02:22.553Z,91.71
2022-09-11T00:05:26.121Z,91.58
2022-09-11T00:08:28.358Z,91.49
2022-09-11T00:11:35.120Z,91.53
2022-09-11T00:14:37.345Z,91.53
2022-09-11T00:17:39.392Z,90.71
2022-09-11T00:20:49.565Z,91.75
2022-09-11T00:23:51.691Z,91.03
2022-09-11T00:26:53.951Z,91.79
2022-09-11T00:29:56.006Z,92.13
2022-09-11T00:32:58.263Z,90.88
2022-09-11T00:36:08.340Z,91.66
2022-09-11T00:39:12.088Z,92.52
2022-09-11T00:42:14.184Z,92.06
2022-09-11T00:45:23.557Z,92.50
2022-09-11T00:48:29.932Z,92.87
2022-09-11T00:51:34.185Z,92.27
2022-09-11T00:54:43.343Z,94.37
2022-09-11T00:57:53.666Z,94.18
2022-09-11T01:00:56.994Z,94.91
2022-09-11T01:04:03.451Z,94.24
2022-09-11T01:07:05.637Z,93.93
2022-09-11T01:10:10.353Z,94.99
2022-09-11T01:13:22.092Z,94.24
2022-09-11T01:16:34.794Z,95.86
2022-09-11T01:19:52.341Z,95.28
2022-09-11T01:23:32.722Z,95.24
2022-09-11T01:26:47.897Z,95.67
2022-09-11T01:29:55.338Z,96.23
2022-09-11T01:33:06.522Z,95.66
2022-09-11T01:36:28.932Z,96.29
2022-09-11T01:39:38.790Z,96.98
2022-09-11T01:42:43.328Z,97.05
2022-09-11T01:45:47.512Z,96.40
2022-09-11T01:49:25.807Z,95.63
2022-09-11T01:52:36.104Z,95.63
2022-09-11T01:55:45.992Z,96.36
2022-09-11T01:58:57.242Z,95.81
2022-09-11T02:02:04.633Z,95.92
2022-09-11T02:05:18.313Z,95.80
2022-09-11T02:08:49.109Z,95.59
2022-09-11T02:11:58.030Z,96.52
2022-09-11T02:15:00.441Z,97.38
2022-09-11T02:18:26.877Z,97.08
2022-09-11T02:21:31.077Z,97.08
2022-09-11T02:24:33.198Z,98.01
2022-09-11T02:27:37.035Z,98.23
2022-09-11T02:30:40.386Z,96.87
2022-09-11T02:33:43.951Z,96.64
2022-09-11T02:37:23.568Z,96.59
2022-09-11T02:40:44.976Z,96.50
2022-09-11T02:43:56.480Z,95.90
2022-09-11T02:47:07.375Z,97.41
2022-09-11T02:50:36.273Z,97.59
2022-09-11T02:53:56.701Z,97.63
2022-09-11T02:57:10.385Z,96.52
2022-09-11T03:00:14.089Z,95.92
2022-09-11T03:03:16.473Z,96.54
2022-09-11T03:06:25.136Z,96.11
2022-09-11T03:09:27.222Z,96.59
2022-09-11T03:12:35.732Z,96.39
2022-09-11T03:15:37.816Z,96.31
2022-09-11T03:18:40.468Z,97.29
2022-09-11T03:21:43.415Z,96.95
2022-09-11T03:24:45.947Z,97.12
2022-09-11T03:27:48.263Z,97.84
2022-09-11T03:30:52.953Z,98.66
2022-09-11T03:33:55.851Z,98.49
2022-09-11T03:36:58.106Z,98.84
2022-09-11T03:40:01.668Z,99.62
2022-09-11T03:43:04.186Z,98.43
2022-09-11T03:46:06.437Z,98.01
2022-09-11T03:49:10.100Z,97.50
2022-09-11T03:52:12.243Z,96.87
2022-09-11T03:55:15.082Z,97.52
2022-09-11T03:58:19.442Z,97.83
2022-09-11T04:01:22.834Z,97.14
2022-09-11T04:04:25.737Z,96.92
2022-09-11T04:07:29.467Z,96.87
2022-09-11T04:10:34.170Z,97.28
2022-09-11T04:13:39.316Z,96.92
2022-09-11T04:16:43.904Z,96.62
2022-09-11T04:19:46.403Z,97.08
2022-09-11T04:22:49.276Z,96.95
2022-09-11T04:25:52.453Z,97.08
2022-09-11T04:28:54.754Z,97.85
2022-09-11T04:31:57.727Z,97.52
2022-09-11T04:35:03.982Z,98.10
2022-09-11T04:38:11.757Z,97.04
2022-09-11T04:41:15.875Z,97.69
2022-09-11T04:44:20.766Z,99.25
2022-09-11T04:47:22.893Z,98.47
2022-09-11T04:50:25.710Z,97.70
2022-09-11T04:53:45.912Z,97.21
2022-09-11T04:56:49.021Z,96.86
2022-09-11T04:59:53.054Z,96.83
2022-09-11T05:02:55.935Z,98.19
2022-09-11T05:05:57.983Z,97.67
2022-09-11T05:09:08.097Z,98.88
2022-09-11T05:12:11.047Z,98.51
2022-09-11T05:15:13.601Z,99.22
2022-09-11T05:18:15.973Z,98.82
2022-09-11T05:21:20.031Z,98.04
2022-09-11T05:24:22.836Z,98.24
2022-09-11T05:27:27.112Z,98.57
2022-09-11T05:30:30.411Z,99.07
2022-09-11T05:33:33.037Z,98.88
2022-09-11T05:36:35.916Z,98.37
2022-09-11T05:39:38.464Z,98.54
2022-09-11T05:42:42.479Z,97.97
2022-09-11T05:45:45.882Z,98.71
2022-09-11T05:48:48.398Z,98.55
2022-09-11T05:51:50.839Z,98.93
2022-09-11T05:54:53.655Z,98.71
2022-09-11T05:57:56.866Z,98.28
2022-09-11T06:01:12.959Z,98.73
2022-09-11T06:04:18.653Z,98.02
2022-09-11T06:07:22.610Z,97.39
2022-09-11T06:10:26.118Z,97.79
2022-09-11T06:13:39.040Z,98.56
2022-09-11T06:16:42.852Z,98.14
2022-09-11T06:19:49.094Z,97.41
2022-09-11T06:22:53.161Z,97.05
2022-09-11T06:26:03.654Z,97.04
2022-09-11T06:29:10.381Z,97.18
2022-09-11T06:32:12.625Z,97.51
2022-09-11T06:35:15.789Z,97.49
2022-09-11T06:38:18.328Z,96.99
2022-09-11T06:41:21.155Z,96.79
2022-09-11T06:44:26.552Z,96.95
2022-09-11T06:47:30.114Z,98.93
2022-09-11T06:50:40.854Z,98.72
2022-09-11T06:53:43.956Z,99.69
2022-09-11T06:56:47.815Z,98.41
2022-09-11T06:59:52.536Z,98.16
2022-09-11T07:02:56.991Z,98.36
2022-09-11T07:06:01.019Z,98.33
2022-09-11T07:09:03.760Z,99.38
2022-09-11T07:12:28.315Z,98.87
2022-09-11T07:15:32.574Z,98.26
2022-09-11T07:18:41.534Z,97.72
2022-09-11T07:21:47.613Z,97.72
2022-09-11T07:24:54.493Z,98.06
2022-09-11T07:27:56.651Z,98.31
2022-09-11T07:31:12.101Z,98.82
2022-09-11T07:34:14.668Z,99.22
2022-09-11T07:37:18.681Z,99.45
2022-09-11T07:40:21.347Z,98.32
2022-09-11T07:43:24.499Z,98.07
2022-09-11T07:46:27.235Z,98.08
2022-09-11T07:49:30.409Z,97.47
2022-09-11T07:52:33.814Z,97.49
2022-09-11T07:55:39.554Z,97.51
2022-09-11T07:58:43.425Z,98.07
2022-09-11T08:01:47.010Z,98.60
2022-09-11T08:04:51.665Z,98.94
2022-09-11T08:07:54.792Z,98.12
2022-09-11T08:11:00.732Z,98.96
2022-09-11T08:14:05.041Z,99.22
2022-09-11T08:17:07.370Z,98.78
2022-09-11T08:20:12.421Z,98.66
2022-09-11T08:23:15.421Z,99.28
2022-09-11T08:26:29.084Z,98.71
2022-09-11T08:29:33.852Z,100.00
2022-09-11T08:32:37.223Z,99.09
2022-09-11T08:35:39.239Z,98.97
2022-09-11T08:38:43.206Z,98.31
2022-09-11T08:41:48.984Z,99.02
2022-09-11T08:44:56.663Z,97.85
2022-09-11T08:48:13.579Z,98.62
2022-09-11T08:51:17.631Z,99.20
2022-09-11T08:54:27.698Z,99.25
2022-09-11T08:57:47.471Z,98.18
2022-09-11T09:01:02.279Z,97.05
2022-09-11T09:04:27.575Z,98.05
2022-09-11T09:08:08.799Z,95.56
2022-09-11T09:11:22.984Z,96.40
2022-09-11T09:15:10.334Z,94.65
2022-09-11T09:18:13.705Z,94.38
2022-09-11T09:21:37.337Z,94.18
2022-09-11T09:24:50.861Z,93.82
2022-09-11T09:28:13.245Z,93.56
2022-09-11T09:31:30.997Z,94.71
2022-09-11T09:34:36.138Z,96.00
2022-09-11T09:37:38.998Z,95.00
2022-09-11T09:40:52.663Z,94.35
2022-09-11T09:44:10.813Z,94.90
2022-09-11T09:47:13.894Z,95.48
2022-09-11T09:50:31.645Z,95.32
2022-09-11T09:53:41.612Z,96.08
2022-09-11T09:56:49.489Z,95.80
2022-09-11T10:00:06.912Z,96.56
2022-09-11T10:03:21.230Z,96.80
2022-09-11T10:06:23.629Z,98.58
2022-09-11T10:09:28.342Z,98.63
2022-09-11T10:12:31.657Z,98.35
2022-09-11T10:15:39.256Z,97.25
2022-09-11T10:18:43.217Z,98.88
2022-09-11T10:21:45.637Z,97.39
2022-09-11T10:25:02.415Z,97.65
2022-09-11T10:28:14.960Z,97.69
2022-09-11T10:31:18.253Z,100.00
2022-09-11T10:34:22.590Z,97.88
2022-09-11T10:37:29.887Z,97.78
2022-09-11T10:40:32.269Z,97.58
2022-09-11T10:43:42.695Z,96.03
2022-09-11T10:46:46.090Z,96.37
2022-09-11T10:49:49.062Z,96.65
2022-09-11T10:53:23.190Z,96.13
2022-09-11T10:56:27.232Z,96.03
2022-09-11T10:59:37.217Z,94.57
2022-09-11T11:02:42.990Z,94.86
2022-09-11T11:06:04.121Z,93.77
2022-09-11T11:09:16.329Z,93.50
2022-09-11T11:12:33.467Z,92.97
2022-09-11T11:15:54.310Z,92.78
2022-09-11T11:19:39.404Z,89.31
2022-09-11T11:23:22.507Z,87.93
2022-09-11T11:26:46.792Z,86.99
2022-09-11T11:30:00.654Z,88.97
2022-09-11T11:33:18.641Z,85.03
2022-09-11T11:36:42.432Z,86.10
2022-09-11T11:39:55.778Z,84.34
2022-09-11T11:43:17.844Z,83.27
2022-09-11T11:46:24.249Z,84.07
2022-09-11T11:49:45.618Z,82.71
2022-09-11T11:53:24.618Z,86.13
2022-09-11T11:56:37.945Z,84.10
2022-09-11T12:00:19.891Z,82.64
2022-09-11T12:03:27.575Z,81.76
2022-09-11T12:06:30.086Z,79.16
2022-09-11T12:09:33.804Z,80.55
2022-09-11T12:12:48.246Z,78.48
2022-09-11T12:16:15.107Z,81.53
2022-09-11T12:19:20.122Z,78.00
2022-09-11T12:22:33.657Z,78.53
2022-09-11T12:25:36.450Z,77.74
2022-09-11T12:28:38.762Z,78.21
2022-09-11T12:31:53.434Z,77.93
2022-09-11T12:35:02.120Z,76.70
2022-09-11T12:38:13.314Z,77.33
2022-09-11T12:41:22.757Z,75.25
2022-09-11T12:44:33.268Z,73.69
2022-09-11T12:47:41.797Z,71.96
2022-09-11T12:50:55.875Z,67.96
2022-09-11T12:54:05.056Z,68.12
2022-09-11T12:57:19.332Z,66.95
2022-09-11T13:00:24.458Z,63.71
2022-09-11T13:03:30.092Z,63.90
2022-09-11T13:06:44.344Z,63.80
2022-09-11T13:09:48.225Z,62.33
2022-09-11T13:12:52.866Z,59.56
2022-09-11T13:15:58.454Z,60.26
2022-09-11T13:19:14.483Z,59.59
2022-09-11T13:22:27.942Z,56.50
2022-09-11T13:25:35.064Z,57.14
2022-09-11T13:28:47.519Z,58.36
2022-09-11T13:31:49.954Z,56.98
2022-09-11T13:34:59.553Z,57.94
2022-09-11T13:38:03.343Z,54.45
2022-09-11T13:41:18.408Z,54.37
2022-09-11T13:44:31.955Z,56.59
2022-09-11T13:47:40.952Z,53.54
2022-09-11T13:50:43.209Z,53.37
2022-09-11T13:53:49.297Z,53.15
2022-09-11T13:56:57.550Z,54.46
2022-09-11T14:00:00.526Z,52.88
2022-09-11T14:03:02.954Z,54.39
2022-09-11T14:06:19.174Z,54.28
2022-09-11T14:09:22.136Z,53.92
2022-09-11T14:12:25.297Z,55.98
2022-09-11T14:15:35.656Z,55.33
2022-09-11T14:18:48.716Z,53.62
2022-09-11T14:21:51.402Z,52.88
2022-09-11T14:25:19.446Z,54.98
2022-09-11T14:28:43.568Z,53.54
2022-09-11T14:31:45.822Z,54.92
2022-09-11T14:34:47.840Z,55.43
2022-09-11T14:37:51.216Z,52.43
2022-09-11T14:40:59.345Z,50.54
2022-09-11T14:44:02.176Z,52.54
2022-09-11T14:47:04.366Z,51.40
2022-09-11T14:50:12.007Z,51.11
2022-09-11T14:53:22.212Z,51.42
2022-09-11T14:56:24.589Z,52.21
2022-09-11T14:59:30.351Z,52.38
2022-09-11T15:02:32.665Z,52.76
2022-09-11T15:05:34.826Z,52.77
2022-09-11T15:08:39.194Z,50.62
2022-09-11T15:11:41.787Z,49.78
2022-09-11T15:14:56.126Z,47.58
2022-09-11T15:18:00.156Z,46.05
2022-09-11T15:21:02.525Z,47.67
2022-09-11T15:24:05.571Z,46.37
2022-09-11T15:27:10.441Z,47.11
2022-09-11T15:30:12.916Z,47.50
2022-09-11T15:33:15.279Z,48.15
2022-09-11T15:36:18.559Z,48.78
2022-09-11T15:39:24.487Z,48.88
2022-09-11T15:42:26.966Z,50.99
2022-09-11T15:45:30.554Z,50.47
2022-09-11T15:48:33.180Z,51.94
2022-09-11T15:51:36.199Z,51.57
2022-09-11T15:54:38.729Z,51.21
2022-09-11T15:57:41.386Z,51.24
2022-09-11T16:00:46.958Z,51.32
2022-09-11T16:03:54.708Z,51.36
2022-09-11T16:06:57.357Z,52.11
2022-09-11T16:09:59.931Z,52.50
2022-09-11T16:13:02.680Z,52.25
2022-09-11T16:16:06.442Z,53.12
2022-09-11T16:19:09.283Z,52.87
2022-09-11T16:22:12.107Z,53.08
2022-09-11T16:25:14.871Z,53.98
2022-09-11T16:28:18.115Z,54.37
2022-09-11T16:31:20.822Z,53.84
2022-09-11T16:34:23.442Z,54.78
2022-09-11T16:37:26.078Z,53.94
2022-09-11T16:40:28.848Z,54.50
2022-09-11T16:43:31.822Z,54.25
2022-09-11T16:46:34.933Z,55.10
2022-09-11T16:50:03.314Z,55.56
2022-09-11T16:52:59.677Z,55.49
2022-09-11T16:56:06.471Z,56.25
2022-09-11T16:59:09.413Z,58.45
2022-09-11T17:02:11.477Z,60.16
2022-09-11T17:05:14.520Z,60.82
2022-09-11T17:08:17.797Z,65.24
2022-09-11T17:11:22.357Z,66.30
2022-09-11T17:14:24.512Z,67.47
2022-09-11T17:17:27.099Z,68.39
2022-09-11T17:20:29.395Z,70.12
2022-09-11T17:23:33.290Z,71.75
2022-09-11T17:26:36.361Z,73.13
2022-09-11T17:29:43.784Z,72.95
2022-09-11T17:32:47.043Z,73.99
2022-09-11T17:35:51.100Z,75.14
2022-09-11T17:38:53.281Z,74.92
2022-09-11T17:41:56.192Z,74.31
2022-09-11T17:44:59.660Z,75.65
2022-09-11T17:48:02.461Z,76.72
2022-09-11T17:51:07.750Z,78.12
2022-09-11T17:54:10.170Z,78.02
2022-09-11T17:57:12.530Z,78.54
2022-09-11T18:00:15.229Z,79.83
2022-09-11T18:03:22.824Z,78.95
2022-09-11T18:06:28.501Z,79.17
2022-09-11T18:09:34.806Z,78.85
2022-09-11T18:12:37.276Z,79.46
2022-09-11T18:15:39.526Z,79.66
2022-09-11T18:18:42.872Z,80.37
2022-09-11T18:21:49.377Z,80.64
2022-09-11T18:24:52.956Z,81.03
2022-09-11T18:27:54.978Z,79.77
2022-09-11T18:31:05.267Z,80.85
2022-09-11T18:34:07.592Z,79.54
2022-09-11T18:37:11.441Z,79.58
2022-09-11T18:40:14.438Z,80.11
2022-09-11T18:43:18.352Z,81.03
2022-09-11T18:46:21.828Z,78.23
2022-09-11T18:49:24.663Z,76.06
2022-09-11T18:52:28.890Z,75.11
2022-09-11T18:55:31.254Z,74.84
2022-09-11T18:58:35.664Z,75.38
2022-09-11T19:01:39.155Z,73.89
2022-09-11T19:04:41.287Z,74.44
2022-09-11T19:07:44.418Z,73.52
2022-09-11T19:10:46.515Z,72.92
2022-09-11T19:13:50.995Z,71.98
2022-09-11T19:16:55.250Z,73.07
2022-09-11T19:20:00.273Z,72.38
2022-09-11T19:23:03.663Z,71.18
2022-09-11T19:26:12.520Z,71.63
2022-09-11T19:29:19.323Z,71.04
2022-09-11T19:32:23.943Z,70.05
2022-09-11T19:35:27.435Z,68.76
2022-09-11T19:38:34.427Z,68.98
2022-09-11T19:41:37.934Z,69.01
2022-09-11T19:44:40.891Z,67.33
2022-09-11T19:47:42.961Z,68.44
2022-09-11T19:50:45.908Z,66.61
2022-09-11T19:53:49.318Z,66.43
2022-09-11T19:56:51.921Z,66.90
2022-09-11T19:59:54.051Z,66.12
2022-09-11T20:02:56.278Z,65.86
2022-09-11T20:06:00.311Z,65.86
2022-09-11T20:12:26.847Z,66.27
2022-09-11T20:15:29.258Z,66.26
2022-09-11T20:18:31.667Z,65.83
2022-09-11T20:21:36.123Z,67.15
2022-09-11T20:24:38.465Z,67.55
2022-09-11T20:27:40.984Z,67.37
2022-09-11T20:30:44.151Z,66.95
2022-09-11T20:33:46.730Z,66.76
2022-09-11T20:36:48.834Z,67.75
2022-09-11T20:39:51.479Z,67.91
2022-09-11T20:42:53.633Z,67.96
2022-09-11T20:45:55.883Z,68.01
2022-09-11T20:48:58.142Z,68.57
2022-09-11T20:52:00.667Z,69.34
2022-09-11T20:55:03.598Z,69.75
2022-09-11T20:58:06.213Z,69.59
2022-09-11T21:01:10.706Z,71.08
2022-09-11T21:04:13.092Z,70.78
2022-09-11T21:07:15.106Z,70.95
2022-09-11T21:10:17.441Z,71.28
2022-09-11T21:13:19.491Z,70.85
2022-09-11T21:16:22.233Z,71.70
2022-09-11T21:19:24.306Z,71.62
2022-09-11T21:22:26.778Z,72.43
2022-09-11T21:25:28.829Z,72.20
2022-09-11T21:28:31.123Z,72.81
2022-09-11T21:31:33.611Z,73.73
2022-09-11T21:34:35.928Z,73.79
2022-09-11T21:37:37.895Z,73.85
2022-09-11T21:40:40.227Z,74.97
2022-09-11T21:43:42.265Z,75.02
2022-09-11T21:46:44.518Z,75.94
2022-09-11T21:49:46.518Z,75.86
2022-09-11T21:52:48.715Z,75.89
2022-09-11T21:55:50.757Z,76.23
2022-09-11T21:58:53.587Z,76.60
2022-09-11T22:01:55.715Z,76.42
2022-09-11T22:04:57.960Z,76.83
2022-09-11T22:08:00.047Z,77.70
2022-09-11T22:11:05.762Z,77.13
2022-09-11T22:14:07.831Z,78.28
2022-09-11T22:17:11.671Z,77.89
2022-09-11T22:20:13.695Z,77.66
2022-09-11T22:23:17.596Z,77.65
2022-09-11T22:26:21.137Z,78.31
2022-09-11T22:29:23.336Z,78.75
2022-09-11T22:32:25.460Z,79.30
2022-09-11T22:35:28.632Z,80.15
2022-09-11T22:38:30.715Z,79.69
2022-09-11T22:41:33.186Z,79.23
2022-09-11T22:44:35.283Z,79.63
2022-09-11T22:47:37.502Z,79.91
2022-09-11T22:50:39.542Z,80.63
2022-09-11T22:53:41.941Z,80.64
2022-09-11T22:56:44.149Z,81.29
2022-09-11T22:59:47.386Z,80.81
2022-09-11T23:02:49.439Z,81.10
2022-09-11T23:06:17.354Z,82.03
2022-09-11T23:09:19.378Z,82.29
2022-09-11T23:12:21.592Z,83.27
2022-09-11T23:15:23.672Z,83.48
2022-09-11T23:18:27.363Z,83.44
2022-09-11T23:21:30.971Z,84.08
2022-09-11T23:24:33.231Z,84.28
2022-09-11T23:27:35.317Z,84.89
2022-09-11T23:30:41.804Z,84.37
2022-09-11T23:33:44.286Z,85.15
2022-09-11T23:36:47.169Z,85.76
2022-09-11T23:39:49.391Z,85.20
2022-09-11T23:42:51.706Z,85.84
2022-09-11T23:45:53.739Z,86.19
2022-09-11T23:48:56.216Z,86.59
2022-09-11T23:51:58.309Z,86.84
2022-09-11T23:55:00.536Z,87.90
2022-09-11T23:58:03.198Z,87.54
